sensor_id;sensor_type;location;lat;lon;timestamp;P1;durP1;ratioP1;P2;durP2;ratioP2
7080;SDS011;3582;51.506;11.948;2022-12-07T00:01:41;18.23;;;11.02;;
7080;SDS011;3582;51.506;11.948;2022-12-07T00:04:10;15.45;;;11.35;;
7080;SDS011;3582;51.506;11.948;2022-12-07T00:06:41;22.15;;;10.35;;
7080;SDS011;3582;51.506;11.948;2022-12-07T00:09:08;15.15;;;10.88;;
7080;SDS011;3582;51.506;11.948;2022-12-07T00:11:35;19.92;;;12.23;;
7080;SDS011;3582;51.506;11.948;2022-12-07T00:14:04;18.63;;;12.53;;
7080;SDS011;3582;51.506;11.948;2022-12-07T00:16:31;15.27;;;11.95;;
7080;SDS011;3582;51.506;11.948;2022-12-07T00:18:58;20.23;;;13.27;;
7080;SDS011;3582;51.506;11.948;2022-12-07T00:21:25;22.63;;;14.45;;
7080;SDS011;3582;51.506;11.948;2022-12-07T00:23:52;19.80;;;13.38;;
7080;SDS011;3582;51.506;11.948;2022-12-07T00:26:22;24.08;;;13.80;;
7080;SDS011;3582;51.506;11.948;2022-12-07T00:28:52;21.17;;;13.65;;
7080;SDS011;3582;51.506;11.948;2022-12-07T00:31:19;21.17;;;14.65;;
7080;SDS011;3582;51.506;11.948;2022-12-07T00:33:46;24.77;;;16.05;;
7080;SDS011;3582;51.506;11.948;2022-12-07T00:36:13;22.02;;;14.88;;
7080;SDS011;3582;51.506;11.948;2022-12-07T00:38:40;25.65;;;15.63;;
7080;SDS011;3582;51.506;11.948;2022-12-07T00:41:07;24.70;;;15.57;;
7080;SDS011;3582;51.506;11.948;2022-12-07T00:43:33;24.13;;;15.00;;
7080;SDS011;3582;51.506;11.948;2022-12-07T00:45:59;23.08;;;16.50;;
7080;SDS011;3582;51.506;11.948;2022-12-07T00:48:25;23.27;;;16.23;;
7080;SDS011;3582;51.506;11.948;2022-12-07T00:50:51;25.58;;;16.80;;
7080;SDS011;3582;51.506;11.948;2022-12-07T00:53:17;22.85;;;15.60;;
7080;SDS011;3582;51.506;11.948;2022-12-07T00:55:43;25.35;;;17.13;;
7080;SDS011;3582;51.506;11.948;2022-12-07T00:58:09;28.33;;;16.52;;
7080;SDS011;3582;51.506;11.948;2022-12-07T01:00:37;27.35;;;18.73;;
7080;SDS011;3582;51.506;11.948;2022-12-07T01:03:03;29.77;;;17.27;;
7080;SDS011;3582;51.506;11.948;2022-12-07T01:05:29;26.67;;;18.17;;
7080;SDS011;3582;51.506;11.948;2022-12-07T01:07:55;27.83;;;17.43;;
7080;SDS011;3582;51.506;11.948;2022-12-07T01:10:21;27.40;;;17.27;;
7080;SDS011;3582;51.506;11.948;2022-12-07T01:12:47;27.48;;;17.55;;
7080;SDS011;3582;51.506;11.948;2022-12-07T01:15:13;29.50;;;17.50;;
7080;SDS011;3582;51.506;11.948;2022-12-07T01:17:39;25.20;;;16.35;;
7080;SDS011;3582;51.506;11.948;2022-12-07T01:20:05;30.30;;;17.90;;
7080;SDS011;3582;51.506;11.948;2022-12-07T01:22:39;28.30;;;16.45;;
7080;SDS011;3582;51.506;11.948;2022-12-07T01:25:06;26.77;;;16.88;;
7080;SDS011;3582;51.506;11.948;2022-12-07T01:27:33;26.67;;;17.63;;
7080;SDS011;3582;51.506;11.948;2022-12-07T01:29:59;26.63;;;16.48;;
7080;SDS011;3582;51.506;11.948;2022-12-07T01:32:25;24.63;;;16.40;;
7080;SDS011;3582;51.506;11.948;2022-12-07T01:34:51;33.25;;;20.20;;
7080;SDS011;3582;51.506;11.948;2022-12-07T01:37:17;27.93;;;16.50;;
7080;SDS011;3582;51.506;11.948;2022-12-07T01:39:43;24.50;;;15.80;;
7080;SDS011;3582;51.506;11.948;2022-12-07T01:42:09;26.20;;;17.00;;
7080;SDS011;3582;51.506;11.948;2022-12-07T01:47:20;28.20;;;16.48;;
7080;SDS011;3582;51.506;11.948;2022-12-07T01:49:47;29.77;;;17.80;;
7080;SDS011;3582;51.506;11.948;2022-12-07T01:52:20;25.30;;;17.58;;
7080;SDS011;3582;51.506;11.948;2022-12-07T01:54:49;25.52;;;16.73;;
7080;SDS011;3582;51.506;11.948;2022-12-07T01:57:17;28.30;;;18.63;;
7080;SDS011;3582;51.506;11.948;2022-12-07T01:59:44;26.70;;;17.98;;
7080;SDS011;3582;51.506;11.948;2022-12-07T02:02:23;26.98;;;18.13;;
7080;SDS011;3582;51.506;11.948;2022-12-07T02:04:51;27.75;;;17.48;;
7080;SDS011;3582;51.506;11.948;2022-12-07T02:07:18;26.52;;;17.15;;
7080;SDS011;3582;51.506;11.948;2022-12-07T02:09:45;30.40;;;18.42;;
7080;SDS011;3582;51.506;11.948;2022-12-07T02:12:11;33.83;;;17.67;;
7080;SDS011;3582;51.506;11.948;2022-12-07T02:14:37;35.03;;;18.02;;
7080;SDS011;3582;51.506;11.948;2022-12-07T02:22:32;30.10;;;15.73;;
7080;SDS011;3582;51.506;11.948;2022-12-07T02:35:18;29.92;;;18.40;;
7080;SDS011;3582;51.506;11.948;2022-12-07T02:40:20;34.83;;;16.73;;
7080;SDS011;3582;51.506;11.948;2022-12-07T02:42:52;26.67;;;16.80;;
7080;SDS011;3582;51.506;11.948;2022-12-07T02:45:21;28.27;;;17.15;;
7080;SDS011;3582;51.506;11.948;2022-12-07T02:47:48;23.77;;;15.20;;
7080;SDS011;3582;51.506;11.948;2022-12-07T02:50:20;28.63;;;16.65;;
7080;SDS011;3582;51.506;11.948;2022-12-07T02:52:46;20.63;;;14.00;;
7080;SDS011;3582;51.506;11.948;2022-12-07T02:55:13;29.80;;;15.37;;
7080;SDS011;3582;51.506;11.948;2022-12-07T02:57:44;25.67;;;15.43;;
7080;SDS011;3582;51.506;11.948;2022-12-07T03:00:13;31.92;;;16.55;;
7080;SDS011;3582;51.506;11.948;2022-12-07T03:10:09;22.30;;;14.13;;
7080;SDS011;3582;51.506;11.948;2022-12-07T03:15:26;27.42;;;17.05;;
7080;SDS011;3582;51.506;11.948;2022-12-07T03:17:52;25.50;;;15.70;;
7080;SDS011;3582;51.506;11.948;2022-12-07T03:20:20;24.20;;;14.75;;
7080;SDS011;3582;51.506;11.948;2022-12-07T03:22:47;25.02;;;16.98;;
7080;SDS011;3582;51.506;11.948;2022-12-07T03:25:13;23.20;;;14.87;;
7080;SDS011;3582;51.506;11.948;2022-12-07T03:27:49;28.23;;;17.75;;
7080;SDS011;3582;51.506;11.948;2022-12-07T03:30:22;22.13;;;15.57;;
7080;SDS011;3582;51.506;11.948;2022-12-07T03:32:50;23.60;;;15.85;;
7080;SDS011;3582;51.506;11.948;2022-12-07T03:35:27;28.48;;;16.00;;
7080;SDS011;3582;51.506;11.948;2022-12-07T03:40:30;22.33;;;15.43;;
7080;SDS011;3582;51.506;11.948;2022-12-07T03:42:59;23.45;;;14.77;;
7080;SDS011;3582;51.506;11.948;2022-12-07T03:45:31;19.15;;;13.82;;
7080;SDS011;3582;51.506;11.948;2022-12-07T03:48:02;24.50;;;16.42;;
7080;SDS011;3582;51.506;11.948;2022-12-07T03:50:41;25.90;;;14.35;;
7080;SDS011;3582;51.506;11.948;2022-12-07T03:53:09;22.85;;;14.60;;
7080;SDS011;3582;51.506;11.948;2022-12-07T03:55:37;22.40;;;13.27;;
7080;SDS011;3582;51.506;11.948;2022-12-07T03:58:09;32.47;;;17.73;;
7080;SDS011;3582;51.506;11.948;2022-12-07T04:00:36;27.45;;;15.90;;
7080;SDS011;3582;51.506;11.948;2022-12-07T04:03:02;29.48;;;15.43;;
7080;SDS011;3582;51.506;11.948;2022-12-07T04:05:28;23.50;;;16.00;;
7080;SDS011;3582;51.506;11.948;2022-12-07T04:07:54;20.85;;;13.32;;
7080;SDS011;3582;51.506;11.948;2022-12-07T04:10:20;23.57;;;14.13;;
7080;SDS011;3582;51.506;11.948;2022-12-07T04:12:46;27.25;;;14.35;;
7080;SDS011;3582;51.506;11.948;2022-12-07T04:15:12;25.47;;;14.60;;
7080;SDS011;3582;51.506;11.948;2022-12-07T04:17:38;21.50;;;14.83;;
7080;SDS011;3582;51.506;11.948;2022-12-07T04:20:04;20.63;;;15.05;;
7080;SDS011;3582;51.506;11.948;2022-12-07T04:22:31;23.92;;;15.82;;
7080;SDS011;3582;51.506;11.948;2022-12-07T04:24:57;24.33;;;15.43;;
7080;SDS011;3582;51.506;11.948;2022-12-07T04:27:23;20.70;;;13.70;;
7080;SDS011;3582;51.506;11.948;2022-12-07T04:29:48;20.07;;;13.07;;
7080;SDS011;3582;51.506;11.948;2022-12-07T04:32:14;21.43;;;13.80;;
7080;SDS011;3582;51.506;11.948;2022-12-07T04:34:40;25.70;;;13.38;;
7080;SDS011;3582;51.506;11.948;2022-12-07T04:37:06;21.20;;;13.13;;
7080;SDS011;3582;51.506;11.948;2022-12-07T04:39:32;18.25;;;12.13;;
7080;SDS011;3582;51.506;11.948;2022-12-07T04:41:59;18.67;;;12.10;;
7080;SDS011;3582;51.506;11.948;2022-12-07T04:44:26;22.05;;;14.25;;
7080;SDS011;3582;51.506;11.948;2022-12-07T04:46:52;20.60;;;13.10;;
7080;SDS011;3582;51.506;11.948;2022-12-07T04:49:19;18.95;;;13.60;;
7080;SDS011;3582;51.506;11.948;2022-12-07T04:51:45;21.35;;;13.07;;
7080;SDS011;3582;51.506;11.948;2022-12-07T04:54:11;18.17;;;11.65;;
7080;SDS011;3582;51.506;11.948;2022-12-07T04:56:38;18.52;;;12.10;;
7080;SDS011;3582;51.506;11.948;2022-12-07T04:59:04;14.93;;;10.27;;
7080;SDS011;3582;51.506;11.948;2022-12-07T05:01:30;14.20;;;10.85;;
7080;SDS011;3582;51.506;11.948;2022-12-07T05:03:57;17.10;;;13.70;;
7080;SDS011;3582;51.506;11.948;2022-12-07T05:06:23;15.95;;;11.27;;
7080;SDS011;3582;51.506;11.948;2022-12-07T05:08:49;14.50;;;11.05;;
7080;SDS011;3582;51.506;11.948;2022-12-07T05:11:15;14.85;;;10.50;;
7080;SDS011;3582;51.506;11.948;2022-12-07T05:14:00;14.60;;;11.45;;
7080;SDS011;3582;51.506;11.948;2022-12-07T05:16:26;11.70;;;9.63;;
7080;SDS011;3582;51.506;11.948;2022-12-07T05:18:52;15.65;;;10.18;;
7080;SDS011;3582;51.506;11.948;2022-12-07T05:21:18;13.30;;;9.50;;
7080;SDS011;3582;51.506;11.948;2022-12-07T05:23:44;15.25;;;10.85;;
7080;SDS011;3582;51.506;11.948;2022-12-07T05:26:10;12.47;;;9.57;;
7080;SDS011;3582;51.506;11.948;2022-12-07T05:28:36;13.30;;;9.57;;
7080;SDS011;3582;51.506;11.948;2022-12-07T05:31:02;14.45;;;11.07;;
7080;SDS011;3582;51.506;11.948;2022-12-07T05:33:28;14.77;;;10.77;;
7080;SDS011;3582;51.506;11.948;2022-12-07T05:35:54;12.93;;;10.88;;
7080;SDS011;3582;51.506;11.948;2022-12-07T05:38:20;14.33;;;11.07;;
7080;SDS011;3582;51.506;11.948;2022-12-07T05:40:46;17.57;;;11.97;;
7080;SDS011;3582;51.506;11.948;2022-12-07T05:43:12;16.97;;;12.70;;
7080;SDS011;3582;51.506;11.948;2022-12-07T05:45:38;16.47;;;11.47;;
7080;SDS011;3582;51.506;11.948;2022-12-07T05:48:04;17.80;;;12.20;;
7080;SDS011;3582;51.506;11.948;2022-12-07T05:50:30;14.05;;;10.90;;
7080;SDS011;3582;51.506;11.948;2022-12-07T05:52:56;17.80;;;12.70;;
7080;SDS011;3582;51.506;11.948;2022-12-07T05:55:22;16.03;;;11.13;;
7080;SDS011;3582;51.506;11.948;2022-12-07T05:57:48;15.20;;;11.10;;
7080;SDS011;3582;51.506;11.948;2022-12-07T06:00:32;16.13;;;12.32;;
7080;SDS011;3582;51.506;11.948;2022-12-07T06:02:58;20.10;;;13.63;;
7080;SDS011;3582;51.506;11.948;2022-12-07T06:05:24;16.20;;;12.00;;
7080;SDS011;3582;51.506;11.948;2022-12-07T06:07:50;21.77;;;13.60;;
7080;SDS011;3582;51.506;11.948;2022-12-07T06:10:16;21.20;;;14.10;;
7080;SDS011;3582;51.506;11.948;2022-12-07T06:12:42;15.30;;;11.60;;
7080;SDS011;3582;51.506;11.948;2022-12-07T06:15:11;23.05;;;13.57;;
7080;SDS011;3582;51.506;11.948;2022-12-07T06:17:38;20.70;;;13.73;;
7080;SDS011;3582;51.506;11.948;2022-12-07T06:20:04;18.42;;;13.70;;
7080;SDS011;3582;51.506;11.948;2022-12-07T06:22:30;18.45;;;12.45;;
7080;SDS011;3582;51.506;11.948;2022-12-07T06:24:56;15.73;;;11.00;;
7080;SDS011;3582;51.506;11.948;2022-12-07T06:27:22;17.27;;;12.37;;
7080;SDS011;3582;51.506;11.948;2022-12-07T06:29:48;19.05;;;13.68;;
7080;SDS011;3582;51.506;11.948;2022-12-07T06:32:14;20.50;;;13.07;;
7080;SDS011;3582;51.506;11.948;2022-12-07T06:34:40;21.38;;;12.85;;
7080;SDS011;3582;51.506;11.948;2022-12-07T06:37:06;23.67;;;14.57;;
7080;SDS011;3582;51.506;11.948;2022-12-07T06:39:32;19.63;;;14.15;;
7080;SDS011;3582;51.506;11.948;2022-12-07T06:41:58;24.00;;;14.07;;
7080;SDS011;3582;51.506;11.948;2022-12-07T06:44:24;21.45;;;14.73;;
7080;SDS011;3582;51.506;11.948;2022-12-07T06:46:51;22.17;;;14.82;;
7080;SDS011;3582;51.506;11.948;2022-12-07T06:49:17;22.58;;;14.45;;
7080;SDS011;3582;51.506;11.948;2022-12-07T06:51:43;23.15;;;14.85;;
7080;SDS011;3582;51.506;11.948;2022-12-07T06:54:13;22.92;;;13.20;;
7080;SDS011;3582;51.506;11.948;2022-12-07T06:56:39;22.67;;;16.05;;
7080;SDS011;3582;51.506;11.948;2022-12-07T06:59:05;20.67;;;12.63;;
7080;SDS011;3582;51.506;11.948;2022-12-07T07:01:32;26.67;;;15.65;;
7080;SDS011;3582;51.506;11.948;2022-12-07T07:03:58;20.02;;;14.30;;
7080;SDS011;3582;51.506;11.948;2022-12-07T07:06:24;24.77;;;15.30;;
7080;SDS011;3582;51.506;11.948;2022-12-07T07:08:50;22.65;;;14.15;;
7080;SDS011;3582;51.506;11.948;2022-12-07T07:11:16;18.42;;;12.63;;
7080;SDS011;3582;51.506;11.948;2022-12-07T07:13:42;25.60;;;16.10;;
7080;SDS011;3582;51.506;11.948;2022-12-07T07:16:08;25.07;;;15.27;;
7080;SDS011;3582;51.506;11.948;2022-12-07T07:18:35;23.67;;;14.40;;
7080;SDS011;3582;51.506;11.948;2022-12-07T07:21:01;23.00;;;13.53;;
7080;SDS011;3582;51.506;11.948;2022-12-07T07:23:27;21.08;;;14.55;;
7080;SDS011;3582;51.506;11.948;2022-12-07T07:25:53;18.02;;;12.00;;
7080;SDS011;3582;51.506;11.948;2022-12-07T07:28:19;23.50;;;15.68;;
7080;SDS011;3582;51.506;11.948;2022-12-07T07:30:45;22.38;;;14.45;;
7080;SDS011;3582;51.506;11.948;2022-12-07T07:33:11;25.23;;;13.18;;
7080;SDS011;3582;51.506;11.948;2022-12-07T07:35:37;22.98;;;14.55;;
7080;SDS011;3582;51.506;11.948;2022-12-07T07:38:04;19.42;;;13.02;;
7080;SDS011;3582;51.506;11.948;2022-12-07T07:40:30;20.27;;;12.98;;
7080;SDS011;3582;51.506;11.948;2022-12-07T07:42:56;27.20;;;14.10;;
7080;SDS011;3582;51.506;11.948;2022-12-07T07:45:23;20.35;;;14.15;;
7080;SDS011;3582;51.506;11.948;2022-12-07T07:47:49;22.95;;;16.02;;
7080;SDS011;3582;51.506;11.948;2022-12-07T07:50:16;25.17;;;14.93;;
7080;SDS011;3582;51.506;11.948;2022-12-07T07:52:42;20.33;;;12.60;;
7080;SDS011;3582;51.506;11.948;2022-12-07T07:55:08;23.77;;;14.20;;
7080;SDS011;3582;51.506;11.948;2022-12-07T07:57:35;24.25;;;15.93;;
7080;SDS011;3582;51.506;11.948;2022-12-07T08:00:01;21.98;;;14.70;;
7080;SDS011;3582;51.506;11.948;2022-12-07T08:02:28;20.90;;;14.30;;
7080;SDS011;3582;51.506;11.948;2022-12-07T08:04:54;18.17;;;12.90;;
7080;SDS011;3582;51.506;11.948;2022-12-07T08:07:20;13.95;;;11.60;;
7080;SDS011;3582;51.506;11.948;2022-12-07T08:09:46;25.02;;;13.68;;
7080;SDS011;3582;51.506;11.948;2022-12-07T08:12:12;14.87;;;9.17;;
7080;SDS011;3582;51.506;11.948;2022-12-07T08:14:38;15.73;;;9.10;;
7080;SDS011;3582;51.506;11.948;2022-12-07T08:17:04;15.80;;;10.63;;
7080;SDS011;3582;51.506;11.948;2022-12-07T08:19:30;39.78;;;11.98;;
7080;SDS011;3582;51.506;11.948;2022-12-07T08:21:56;19.52;;;12.20;;
7080;SDS011;3582;51.506;11.948;2022-12-07T08:24:22;16.33;;;10.68;;
7080;SDS011;3582;51.506;11.948;2022-12-07T08:26:50;14.18;;;10.82;;
7080;SDS011;3582;51.506;11.948;2022-12-07T08:29:16;15.13;;;10.25;;
7080;SDS011;3582;51.506;11.948;2022-12-07T08:31:42;16.50;;;11.98;;
7080;SDS011;3582;51.506;11.948;2022-12-07T08:34:09;17.07;;;11.40;;
7080;SDS011;3582;51.506;11.948;2022-12-07T08:36:36;22.40;;;13.00;;
7080;SDS011;3582;51.506;11.948;2022-12-07T08:39:02;19.63;;;11.98;;
7080;SDS011;3582;51.506;11.948;2022-12-07T08:41:28;23.23;;;11.90;;
7080;SDS011;3582;51.506;11.948;2022-12-07T08:43:54;19.17;;;13.30;;
7080;SDS011;3582;51.506;11.948;2022-12-07T08:46:39;23.90;;;14.13;;
7080;SDS011;3582;51.506;11.948;2022-12-07T08:49:12;18.45;;;14.20;;
7080;SDS011;3582;51.506;11.948;2022-12-07T08:51:39;17.88;;;12.60;;
7080;SDS011;3582;51.506;11.948;2022-12-07T08:54:06;15.73;;;12.15;;
7080;SDS011;3582;51.506;11.948;2022-12-07T08:56:33;20.20;;;13.70;;
7080;SDS011;3582;51.506;11.948;2022-12-07T08:59:00;20.83;;;13.38;;
7080;SDS011;3582;51.506;11.948;2022-12-07T09:01:26;14.17;;;12.03;;
7080;SDS011;3582;51.506;11.948;2022-12-07T09:03:52;20.13;;;11.95;;
7080;SDS011;3582;51.506;11.948;2022-12-07T09:06:18;15.30;;;9.35;;
7080;SDS011;3582;51.506;11.948;2022-12-07T09:08:45;11.33;;;7.30;;
7080;SDS011;3582;51.506;11.948;2022-12-07T09:11:12;16.02;;;8.38;;
7080;SDS011;3582;51.506;11.948;2022-12-07T09:13:38;11.93;;;6.50;;
7080;SDS011;3582;51.506;11.948;2022-12-07T09:16:04;8.33;;;6.07;;
7080;SDS011;3582;51.506;11.948;2022-12-07T09:18:30;11.82;;;7.30;;
7080;SDS011;3582;51.506;11.948;2022-12-07T09:20:56;9.80;;;8.10;;
7080;SDS011;3582;51.506;11.948;2022-12-07T09:23:22;15.25;;;8.13;;
7080;SDS011;3582;51.506;11.948;2022-12-07T09:25:48;16.02;;;9.73;;
7080;SDS011;3582;51.506;11.948;2022-12-07T09:28:14;53.73;;;48.90;;
7080;SDS011;3582;51.506;11.948;2022-12-07T09:30:47;17.63;;;8.35;;
7080;SDS011;3582;51.506;11.948;2022-12-07T09:33:13;19.45;;;9.23;;
7080;SDS011;3582;51.506;11.948;2022-12-07T09:35:44;23.90;;;10.75;;
7080;SDS011;3582;51.506;11.948;2022-12-07T09:38:10;20.52;;;12.43;;
7080;SDS011;3582;51.506;11.948;2022-12-07T09:40:36;18.80;;;11.27;;
7080;SDS011;3582;51.506;11.948;2022-12-07T09:43:02;23.10;;;13.53;;
7080;SDS011;3582;51.506;11.948;2022-12-07T09:45:32;15.30;;;12.23;;
7080;SDS011;3582;51.506;11.948;2022-12-07T09:47:59;20.52;;;13.15;;
7080;SDS011;3582;51.506;11.948;2022-12-07T09:50:26;26.70;;;11.30;;
7080;SDS011;3582;51.506;11.948;2022-12-07T09:52:52;16.40;;;10.68;;
7080;SDS011;3582;51.506;11.948;2022-12-07T09:55:26;15.13;;;11.07;;
7080;SDS011;3582;51.506;11.948;2022-12-07T09:57:53;16.15;;;10.40;;
7080;SDS011;3582;51.506;11.948;2022-12-07T10:00:20;18.02;;;14.05;;
7080;SDS011;3582;51.506;11.948;2022-12-07T10:02:49;14.40;;;11.70;;
7080;SDS011;3582;51.506;11.948;2022-12-07T10:05:18;15.02;;;11.07;;
7080;SDS011;3582;51.506;11.948;2022-12-07T10:07:46;17.35;;;10.02;;
7080;SDS011;3582;51.506;11.948;2022-12-07T10:10:17;17.00;;;10.60;;
7080;SDS011;3582;51.506;11.948;2022-12-07T10:13:01;12.50;;;8.90;;
7080;SDS011;3582;51.506;11.948;2022-12-07T10:15:41;20.25;;;10.20;;
7080;SDS011;3582;51.506;11.948;2022-12-07T10:18:21;13.52;;;10.10;;
7080;SDS011;3582;51.506;11.948;2022-12-07T10:20:59;19.67;;;10.05;;
7080;SDS011;3582;51.506;11.948;2022-12-07T10:23:25;13.20;;;9.80;;
7080;SDS011;3582;51.506;11.948;2022-12-07T10:25:51;10.17;;;8.07;;
7080;SDS011;3582;51.506;11.948;2022-12-07T10:28:19;12.85;;;10.23;;
7080;SDS011;3582;51.506;11.948;2022-12-07T10:33:26;12.13;;;8.43;;
7080;SDS011;3582;51.506;11.948;2022-12-07T10:35:53;14.85;;;9.93;;
7080;SDS011;3582;51.506;11.948;2022-12-07T10:38:19;8.73;;;7.83;;
7080;SDS011;3582;51.506;11.948;2022-12-07T10:40:45;9.50;;;8.20;;
7080;SDS011;3582;51.506;11.948;2022-12-07T10:48:18;10.35;;;6.60;;
7080;SDS011;3582;51.506;11.948;2022-12-07T11:03:50;6.28;;;5.60;;
7080;SDS011;3582;51.506;11.948;2022-12-07T11:12:39;9.05;;;6.25;;
7080;SDS011;3582;51.506;11.948;2022-12-07T11:14:56;7.47;;;5.65;;
7080;SDS011;3582;51.506;11.948;2022-12-07T11:22:37;6.63;;;5.82;;
7080;SDS011;3582;51.506;11.948;2022-12-07T11:28:00;8.48;;;6.30;;
7080;SDS011;3582;51.506;11.948;2022-12-07T11:30:30;7.82;;;6.20;;
7080;SDS011;3582;51.506;11.948;2022-12-07T11:33:04;9.93;;;6.20;;
7080;SDS011;3582;51.506;11.948;2022-12-07T11:35:38;7.45;;;6.65;;
7080;SDS011;3582;51.506;11.948;2022-12-07T11:38:14;8.82;;;5.32;;
7080;SDS011;3582;51.506;11.948;2022-12-07T11:40:40;15.38;;;5.95;;
7080;SDS011;3582;51.506;11.948;2022-12-07T11:43:13;10.98;;;5.70;;
7080;SDS011;3582;51.506;11.948;2022-12-07T11:45:44;6.28;;;5.35;;
7080;SDS011;3582;51.506;11.948;2022-12-07T11:48:17;9.68;;;6.00;;
7080;SDS011;3582;51.506;11.948;2022-12-07T11:50:47;9.35;;;5.85;;
7080;SDS011;3582;51.506;11.948;2022-12-07T11:53:20;10.73;;;5.00;;
7080;SDS011;3582;51.506;11.948;2022-12-07T11:55:50;6.38;;;5.00;;
7080;SDS011;3582;51.506;11.948;2022-12-07T12:03:30;8.10;;;5.80;;
7080;SDS011;3582;51.506;11.948;2022-12-07T12:05:57;6.72;;;4.95;;
7080;SDS011;3582;51.506;11.948;2022-12-07T12:08:30;6.97;;;4.90;;
7080;SDS011;3582;51.506;11.948;2022-12-07T12:18:43;4.50;;;3.60;;
7080;SDS011;3582;51.506;11.948;2022-12-07T12:21:18;5.15;;;2.85;;
7080;SDS011;3582;51.506;11.948;2022-12-07T12:23:47;7.47;;;3.17;;
7080;SDS011;3582;51.506;11.948;2022-12-07T12:26:20;5.07;;;2.85;;
7080;SDS011;3582;51.506;11.948;2022-12-07T12:28:54;2.88;;;2.60;;
7080;SDS011;3582;51.506;11.948;2022-12-07T12:33:53;4.07;;;2.40;;
7080;SDS011;3582;51.506;11.948;2022-12-07T12:36:21;7.00;;;4.57;;
7080;SDS011;3582;51.506;11.948;2022-12-07T12:44:03;3.67;;;2.50;;
7080;SDS011;3582;51.506;11.948;2022-12-07T12:51:45;11.47;;;2.90;;
7080;SDS011;3582;51.506;11.948;2022-12-07T12:54:19;5.40;;;2.70;;
7080;SDS011;3582;51.506;11.948;2022-12-07T12:59:21;4.07;;;2.85;;
7080;SDS011;3582;51.506;11.948;2022-12-07T13:01:53;3.33;;;3.03;;
7080;SDS011;3582;51.506;11.948;2022-12-07T13:04:24;3.05;;;2.50;;
7080;SDS011;3582;51.506;11.948;2022-12-07T13:06:50;5.03;;;3.25;;
7080;SDS011;3582;51.506;11.948;2022-12-07T13:09:20;2.33;;;2.13;;
7080;SDS011;3582;51.506;11.948;2022-12-07T13:11:47;5.80;;;3.15;;
7080;SDS011;3582;51.506;11.948;2022-12-07T13:16:58;3.05;;;2.50;;
7080;SDS011;3582;51.506;11.948;2022-12-07T13:24:56;8.88;;;3.75;;
7080;SDS011;3582;51.506;11.948;2022-12-07T13:27:24;2.85;;;2.53;;
7080;SDS011;3582;51.506;11.948;2022-12-07T13:29:51;7.43;;;3.35;;
7080;SDS011;3582;51.506;11.948;2022-12-07T13:32:23;4.68;;;2.95;;
7080;SDS011;3582;51.506;11.948;2022-12-07T13:34:49;5.18;;;3.88;;
7080;SDS011;3582;51.506;11.948;2022-12-07T13:37:20;3.63;;;2.63;;
7080;SDS011;3582;51.506;11.948;2022-12-07T13:39:51;5.45;;;3.67;;
7080;SDS011;3582;51.506;11.948;2022-12-07T13:42:27;4.55;;;4.07;;
7080;SDS011;3582;51.506;11.948;2022-12-07T13:44:54;8.85;;;3.92;;
7080;SDS011;3582;51.506;11.948;2022-12-07T13:50:29;4.45;;;3.80;;
7080;SDS011;3582;51.506;11.948;2022-12-07T13:52:56;6.22;;;5.63;;
7080;SDS011;3582;51.506;11.948;2022-12-07T13:55:23;6.35;;;3.25;;
7080;SDS011;3582;51.506;11.948;2022-12-07T13:57:49;7.20;;;2.50;;
7080;SDS011;3582;51.506;11.948;2022-12-07T14:00:18;4.45;;;3.22;;
7080;SDS011;3582;51.506;11.948;2022-12-07T14:03:00;3.78;;;3.10;;
7080;SDS011;3582;51.506;11.948;2022-12-07T14:05:27;5.80;;;2.00;;
7080;SDS011;3582;51.506;11.948;2022-12-07T14:07:54;5.03;;;2.38;;
7080;SDS011;3582;51.506;11.948;2022-12-07T14:10:23;2.97;;;2.63;;
7080;SDS011;3582;51.506;11.948;2022-12-07T14:12:49;7.07;;;3.45;;
7080;SDS011;3582;51.506;11.948;2022-12-07T14:15:20;4.32;;;3.05;;
7080;SDS011;3582;51.506;11.948;2022-12-07T14:17:50;3.75;;;2.65;;
7080;SDS011;3582;51.506;11.948;2022-12-07T14:23:01;4.43;;;3.20;;
7080;SDS011;3582;51.506;11.948;2022-12-07T14:25:34;5.40;;;3.42;;
7080;SDS011;3582;51.506;11.948;2022-12-07T14:28:09;8.00;;;4.38;;
7080;SDS011;3582;51.506;11.948;2022-12-07T14:30:50;10.57;;;3.55;;
7080;SDS011;3582;51.506;11.948;2022-12-07T14:33:16;4.30;;;2.97;;
7080;SDS011;3582;51.506;11.948;2022-12-07T14:35:42;6.70;;;3.70;;
7080;SDS011;3582;51.506;11.948;2022-12-07T14:38:08;10.00;;;3.93;;
7080;SDS011;3582;51.506;11.948;2022-12-07T14:40:34;10.05;;;7.00;;
7080;SDS011;3582;51.506;11.948;2022-12-07T14:43:01;5.30;;;3.78;;
7080;SDS011;3582;51.506;11.948;2022-12-07T14:45:28;6.50;;;3.65;;
7080;SDS011;3582;51.506;11.948;2022-12-07T14:47:54;4.82;;;3.55;;
7080;SDS011;3582;51.506;11.948;2022-12-07T14:50:20;6.20;;;3.50;;
7080;SDS011;3582;51.506;11.948;2022-12-07T14:52:51;10.95;;;3.75;;
7080;SDS011;3582;51.506;11.948;2022-12-07T14:55:20;10.20;;;4.50;;
7080;SDS011;3582;51.506;11.948;2022-12-07T14:57:48;6.65;;;3.03;;
7080;SDS011;3582;51.506;11.948;2022-12-07T15:00:14;8.52;;;4.15;;
7080;SDS011;3582;51.506;11.948;2022-12-07T15:02:41;8.73;;;5.47;;
7080;SDS011;3582;51.506;11.948;2022-12-07T15:05:08;10.32;;;3.80;;
7080;SDS011;3582;51.506;11.948;2022-12-07T15:07:34;6.18;;;3.85;;
7080;SDS011;3582;51.506;11.948;2022-12-07T15:09:59;7.00;;;4.07;;
7080;SDS011;3582;51.506;11.948;2022-12-07T15:12:25;8.50;;;3.80;;
7080;SDS011;3582;51.506;11.948;2022-12-07T15:14:52;7.50;;;4.10;;
7080;SDS011;3582;51.506;11.948;2022-12-07T15:17:18;3.97;;;3.45;;
7080;SDS011;3582;51.506;11.948;2022-12-07T15:19:44;7.00;;;4.00;;
7080;SDS011;3582;51.506;11.948;2022-12-07T15:22:10;6.47;;;3.50;;
7080;SDS011;3582;51.506;11.948;2022-12-07T15:24:36;6.00;;;4.47;;
7080;SDS011;3582;51.506;11.948;2022-12-07T15:27:02;12.05;;;6.30;;
7080;SDS011;3582;51.506;11.948;2022-12-07T15:29:28;6.30;;;4.57;;
7080;SDS011;3582;51.506;11.948;2022-12-07T15:31:55;4.68;;;3.20;;
7080;SDS011;3582;51.506;11.948;2022-12-07T15:34:22;8.82;;;7.13;;
7080;SDS011;3582;51.506;11.948;2022-12-07T15:36:48;9.85;;;7.20;;
7080;SDS011;3582;51.506;11.948;2022-12-07T15:39:14;4.63;;;3.15;;
7080;SDS011;3582;51.506;11.948;2022-12-07T15:41:40;7.38;;;3.65;;
7080;SDS011;3582;51.506;11.948;2022-12-07T15:44:08;4.27;;;2.23;;
7080;SDS011;3582;51.506;11.948;2022-12-07T15:46:53;3.65;;;3.15;;
7080;SDS011;3582;51.506;11.948;2022-12-07T15:49:19;3.40;;;2.50;;
7080;SDS011;3582;51.506;11.948;2022-12-07T15:51:45;6.13;;;3.42;;
7080;SDS011;3582;51.506;11.948;2022-12-07T15:54:16;3.85;;;2.85;;
7080;SDS011;3582;51.506;11.948;2022-12-07T15:56:43;4.75;;;4.30;;
7080;SDS011;3582;51.506;11.948;2022-12-07T15:59:09;3.30;;;3.00;;
7080;SDS011;3582;51.506;11.948;2022-12-07T16:01:35;8.95;;;6.00;;
7080;SDS011;3582;51.506;11.948;2022-12-07T16:04:01;4.30;;;3.92;;
7080;SDS011;3582;51.506;11.948;2022-12-07T16:06:27;5.40;;;3.60;;
7080;SDS011;3582;51.506;11.948;2022-12-07T16:08:53;5.80;;;4.90;;
7080;SDS011;3582;51.506;11.948;2022-12-07T16:11:19;3.27;;;2.77;;
7080;SDS011;3582;51.506;11.948;2022-12-07T16:13:45;5.40;;;4.22;;
7080;SDS011;3582;51.506;11.948;2022-12-07T16:16:12;4.73;;;3.97;;
7080;SDS011;3582;51.506;11.948;2022-12-07T16:18:39;5.15;;;3.20;;
7080;SDS011;3582;51.506;11.948;2022-12-07T16:21:05;3.97;;;3.38;;
7080;SDS011;3582;51.506;11.948;2022-12-07T16:23:31;5.35;;;2.40;;
7080;SDS011;3582;51.506;11.948;2022-12-07T16:26:04;8.88;;;3.10;;
7080;SDS011;3582;51.506;11.948;2022-12-07T16:28:30;5.50;;;3.40;;
7080;SDS011;3582;51.506;11.948;2022-12-07T16:31:03;11.00;;;3.47;;
7080;SDS011;3582;51.506;11.948;2022-12-07T16:33:29;7.07;;;6.15;;
7080;SDS011;3582;51.506;11.948;2022-12-07T16:35:55;4.57;;;3.40;;
7080;SDS011;3582;51.506;11.948;2022-12-07T16:38:21;4.97;;;3.73;;